Logo AVAMET
Benvolgut visitant, si us plau, ingressa Recuperar contrasenya

Betxí

Dades diàries. Acumulats / Últims 30 dies disponibles

Data Temperatura (°C) Humitat rel. (%) Pressió rel. (hPa) Vent (km/h) Precipitació
Mínima Mitjana Màxima Amplitud
tèrmica
Mínima Mitjana Màxima Mínima Mitjana Màxima Predom. Mitjana Ràfega
màxima
Total
(mm)
Índex-n
Mínima Mitjana Màxima Mínima Mitjana Màxima n
0 a 1
P0 max
mm 5'
Dades mensuals acumulades fins l'últim dia disponible
07/2019 20,5 21,8 24,1 26,5 28,5 30,9 32,6 12,1 34 62 89 1.009 1.015 1.022   4,6 30,6 14,4
Dades anuals acumulades fins l'últim dia disponible
2019 6,5 14,1 24,1 18,9 12,2 23,7 37,7 31,2 14 59 96 998 1.017 1.031   5,1 53,1 118,8
Últims 30 dies disponibles
21-07-2019 22,6     27,3     31,6 9,0 44 63 79 1.018 1.020 1.022 ESE 4,2 22,5 0,0
20-07-2019 20,9     26,6     31,2 10,3 42 62 81 1.015 1.016 1.019 SE 4,7 25,7 0,0
19-07-2019 21,6     26,2     30,1 8,5 46 63 80 1.015 1.016 1.017 ESE 4,3 24,1 0,0
18-07-2019 21,1     25,9     29,9 8,8 46 63 77 1.014 1.015 1.016 ESE 4,5 24,1 0,0
17-07-2019 22,1     26,1     31,1 9,0 39 60 73 1.013 1.014 1.016 SE 4,5 29,0 0,0
16-07-2019 21,8     26,2     30,1 8,3 47 62 74 1.014 1.016 1.017 NW 5,6 30,6 0,0
15-07-2019 22,7     26,8     31,1 8,4 39 61 80 1.011 1.012 1.014 NW 5,3 24,1 0,0
14-07-2019 21,2     25,8     30,1 8,9 51 67 77 1.010 1.012 1.013 NW 4,5 30,6 0,0
13-07-2019 24,1     27,4     31,9 7,8 42 57 75 1.012 1.014 1.016 ESE 4,0 25,7 0,0
12-07-2019 21,4     27,4     31,8 10,4 34 58 77 1.014 1.015 1.016 ESE 3,9 20,9 0,0
11-07-2019 22,0     26,8     31,5 9,5 48 64 81 1.013 1.014 1.016 SE 4,8 27,4 0,0
10-07-2019 21,1     25,1     28,5 7,4 54 69 83 1.014 1.015 1.016 SE 5,5 30,6 0,0
09-07-2019 22,1     25,7     29,6 7,5 43 64 81 1.011 1.012 1.015 NW 5,3 24,1 0,0
08-07-2019 21,8     24,8     28,6 6,8 60 77 89 1.011 1.013 1.016 NW 4,7 25,7 6,4 0,68 0,80
07-07-2019 22,8     27,3     32,6 9,8 43 65 87 1.009 1.012 1.013 ESE 4,3 25,7 8,0
06-07-2019 22,2     27,0     31,2 9,0 59 74 88 1.010 1.013 1.016 ESE 4,0 27,4 0,0
05-07-2019 21,9     26,6     31,3 9,4 45 64 85 1.014 1.016 1.018 ESE 4,7 22,5 0,0
04-07-2019 20,8     27,2     32,2 11,4 36 51 81 1.015 1.016 1.018 ESE 4,3 24,1 0,0
03-07-2019 21,3     27,1     31,5 10,2 36 48 63 1.014 1.015 1.016 SE 4,7 27,4 0,0
02-07-2019 20,5     26,6     31,6 11,1 37 53 70 1.014 1.016 1.017 WNW 4,2 20,9 0,0
01-07-2019 21,0     26,8     30,8 9,8 38 55 72 1.015 1.017 1.018 ESE 4,5 24,1 0,0
30-06-2019 22,3     27,9     32,6 10,3 28 46 74 1.016 1.017 1.018 SSO 4,2 20,9 0,0
29-06-2019 21,9     29,9     37,7 15,8 14 35 55 1.014 1.015 1.016 WNW 4,8 25,7 0,0
28-06-2019 22,0     28,9     35,4 13,4 31 46 62 1.015 1.017 1.019 SE 3,9 22,5 0,0
27-06-2019 21,9     27,9     33,6 11,7 33 51 77 1.018 1.020 1.021 NW 4,3 20,9 0,0
26-06-2019 20,7     25,6     29,6 8,9 54 69 85 1.018 1.019 1.020 ESE 5,8 27,4 0,0
25-06-2019 19,3     23,8     28,5 9,2 60 74 85 1.015 1.017 1.019 ESE 4,5 25,7 0,0
24-06-2019 18,6     23,7     28,7 10,1 34 63 83 1.014 1.015 1.017 ESE 5,1 25,7 0,0
23-06-2019 18,5     23,8     28,8 10,3 41 64 83 1.014 1.015 1.017 SE 4,5 27,4 0,0
22-06-2019 18,1     22,7     26,5 8,4 55 70 85 1.015 1.017 1.018 SE 5,1 27,4 0,0
Últims 13 mesos disponibles
06/2019 11,2 17,5 22,3 22,7 22,0 27,5 37,7 26,5 35 58 74 1.008 1.016 1.022 ESE 4,9 53,1 0,0
05/2019 8,9 13,5 16,7 18,1 18,3 22,9 28,4 19,5 47 63 86 1.005 1.016 1.025 NW 5,0 48,3 25,4
04/2019 7,4 11,2 14,1 15,3 15,8 19,9 27,7 20,3 36 60 88 999 1.013 1.025 NW 6,2 51,5 55,4
03/2019 6,5 9,3 14,2 14,4 12,2 19,9 26,1 19,6 36 53 82 1.010 1.023 1.030 NW 4,6 53,1 23,4
10/2018 8,3 14,5 17,7 18,5 14,6 22,6 27,3 19,0 42 71 94 998 1.014 1.025 NW 2,9 70,8 228,0
09/2018 17,3 20,3 23,0 24,4 24,6 28,1 31,1 13,8 49 73 85 1.012 1.019 1.029 SE 2,6 32,2 59,4
08/2018 19,1 22,6 26,5 26,9 26,8 30,7 35,6 16,5 49 67 80 1.011 1.016 1.021 SE 3,2 51,5 35,4
07/2018 19,9 21,9 24,0 26,5 26,5 30,5 35,3 15,4 ESE 3,4 35,4 0,0
06/2018 14,7 18,9 22,1 23,4 22,6 27,7 31,6 16,9 SE 3,5 35,4 34,0
05/2018 8,9 14,4 17,8 18,7 18,2 23,2 25,5 16,6 SE 3,3 37,0 44,8
04/2018 8,4 11,9 15,8 16,4 14,2 21,0 25,3 16,9 WNW 4,2 61,2 27,6
03/2018 5,4 9,6 14,6 14,1 14,8 18,8 25,7 20,3 WNW 5,9 74,0 20,8
02/2018 1,4 5,8 11,4 9,9 8,4 14,4 22,1 20,7 NW 3,6 45,1 63,6
Tots els anys disponibles
2017 0,8 13,7 25,1 18,1 8,5 22,7 36,5 35,7 WNW 3,7 75,6 422,0
2016 2,7 13,8 26,4 17,8 8,2 21,9 34,6 31,9 52 61 68 1.014 1.015 1.019 3,5 81,0 485,2
Temperatura (°C)
Humitat relativa (%)
Velocitat del vent i ràfega màxima (km/h)
Direcció del vent (°)
Pressió (hPa)
Precipitació (mm)
Nota sobre les dades: s'avisa a l'usuari de la provisionalitat i no oficialitat d'aquestes dades
Logo AVAMET blanc
Web allotjada a Sollutia
Llicència de Creative CommonsLa web d'AVAMET i els seus continguts estan subjectes a una llicència de
Reconeixement - No Comercial - Compartir igual
Properes estacions: Altea - Club Nàutic d'Altea (Soci), Ares del Maestrat (Ajuntament Soci),      - - - - -      Últimes estacions: Catadau - Urb. Lloma Molina (Inforatge), Ontinyent - El Pilar (Soci) - - -